Olathe, Colorado
Current Conditions -  °F | °C
As of 9:53 AM on Saturday 25 Oct 2014 (Local Time) from KMTJ Reporting Station
Clear Clear  
Wind Chill: 55°   Ceiling: Unl
Heat Index: 55°   Visibility: 10mi
Dew Point: 28°   Wind: 3mph
Humidity: 35%   Direction: 150°SSE
Pressure: 30.34"   Gusts: NA
Location:  38.6°N, 107.98°W
Report Text: KMTJ 251553Z AUTO 15003KT 10SM CLR 13/M02 A3034 RMK AO2 SLP232 T01281022
Loading
Personal Weather Stations






























Interactive Weather Map
Tropical Storm Tracking
New forecast layout! Learn more

10-Day Weather Forecast

Advertisements
Track Severe Weather on mobile